sensor_id;sensor_type;location;lat;lon;timestamp;temperature;humidity
13433;DHT22;6789;47.678;9.158;2023-07-29T00:03:39;18.70;99.90
13433;DHT22;6789;47.678;9.158;2023-07-29T00:08:33;18.60;99.90
13433;DHT22;6789;47.678;9.158;2023-07-29T00:13:25;18.60;99.90
13433;DHT22;6789;47.678;9.158;2023-07-29T00:18:16;18.50;99.90
13433;DHT22;6789;47.678;9.158;2023-07-29T00:23:09;18.70;99.90
13433;DHT22;6789;47.678;9.158;2023-07-29T00:28:00;18.90;99.90
13433;DHT22;6789;47.678;9.158;2023-07-29T00:32:52;18.90;99.90
13433;DHT22;6789;47.678;9.158;2023-07-29T00:37:44;18.70;99.90
13433;DHT22;6789;47.678;9.158;2023-07-29T00:42:36;18.70;99.90
13433;DHT22;6789;47.678;9.158;2023-07-29T00:47:28;18.70;99.90
13433;DHT22;6789;47.678;9.158;2023-07-29T00:52:19;18.70;99.90
13433;DHT22;6789;47.678;9.158;2023-07-29T00:57:13;18.60;99.90
13433;DHT22;6789;47.678;9.158;2023-07-29T01:02:08;18.40;99.90
13433;DHT22;6789;47.678;9.158;2023-07-29T01:07:37;18.40;99.90
13433;DHT22;6789;47.678;9.158;2023-07-29T01:18:06;18.90;99.90
13433;DHT22;6789;47.678;9.158;2023-07-29T01:23:02;18.90;99.90
13433;DHT22;6789;47.678;9.158;2023-07-29T01:27:55;18.80;99.90
13433;DHT22;6789;47.678;9.158;2023-07-29T01:38:07;18.60;99.90
13433;DHT22;6789;47.678;9.158;2023-07-29T01:43:04;18.30;99.90
13433;DHT22;6789;47.678;9.158;2023-07-29T01:47:58;18.30;99.90
13433;DHT22;6789;47.678;9.158;2023-07-29T01:52:50;18.20;99.90
13433;DHT22;6789;47.678;9.158;2023-07-29T01:57:43;18.20;99.90
13433;DHT22;6789;47.678;9.158;2023-07-29T02:02:36;18.20;99.90
13433;DHT22;6789;47.678;9.158;2023-07-29T02:07:28;18.30;99.90
13433;DHT22;6789;47.678;9.158;2023-07-29T02:12:20;18.30;99.90
13433;DHT22;6789;47.678;9.158;2023-07-29T02:17:12;18.20;99.90
13433;DHT22;6789;47.678;9.158;2023-07-29T02:22:04;18.20;99.90
13433;DHT22;6789;47.678;9.158;2023-07-29T02:26:56;18.20;99.90
13433;DHT22;6789;47.678;9.158;2023-07-29T02:31:47;18.20;99.90
13433;DHT22;6789;47.678;9.158;2023-07-29T02:36:39;18.20;99.90
13433;DHT22;6789;47.678;9.158;2023-07-29T02:41:31;18.40;99.90
13433;DHT22;6789;47.678;9.158;2023-07-29T02:46:23;18.40;99.90
13433;DHT22;6789;47.678;9.158;2023-07-29T02:51:15;18.30;99.90
13433;DHT22;6789;47.678;9.158;2023-07-29T02:56:06;18.40;99.90
13433;DHT22;6789;47.678;9.158;2023-07-29T03:01:04;18.60;99.90
13433;DHT22;6789;47.678;9.158;2023-07-29T03:06:02;18.50;99.90
13433;DHT22;6789;47.678;9.158;2023-07-29T03:10:58;18.50;99.90
13433;DHT22;6789;47.678;9.158;2023-07-29T03:16:11;18.30;99.90
13433;DHT22;6789;47.678;9.158;2023-07-29T03:21:05;18.60;99.90
13433;DHT22;6789;47.678;9.158;2023-07-29T03:25:58;18.60;99.90
13433;DHT22;6789;47.678;9.158;2023-07-29T03:30:50;18.70;99.90
13433;DHT22;6789;47.678;9.158;2023-07-29T03:35:42;18.70;99.90
13433;DHT22;6789;47.678;9.158;2023-07-29T03:40:36;18.60;99.90
13433;DHT22;6789;47.678;9.158;2023-07-29T03:45:28;18.60;99.90
13433;DHT22;6789;47.678;9.158;2023-07-29T03:50:19;18.70;99.90
13433;DHT22;6789;47.678;9.158;2023-07-29T03:55:11;18.50;99.90
13433;DHT22;6789;47.678;9.158;2023-07-29T04:00:04;18.30;99.90
13433;DHT22;6789;47.678;9.158;2023-07-29T04:04:59;18.50;99.90
13433;DHT22;6789;47.678;9.158;2023-07-29T04:09:51;18.40;99.90
13433;DHT22;6789;47.678;9.158;2023-07-29T04:14:43;18.60;99.90
13433;DHT22;6789;47.678;9.158;2023-07-29T04:19:34;18.70;99.90
13433;DHT22;6789;47.678;9.158;2023-07-29T04:24:26;18.60;99.90
13433;DHT22;6789;47.678;9.158;2023-07-29T04:29:18;18.70;99.90
13433;DHT22;6789;47.678;9.158;2023-07-29T04:34:10;18.60;99.90
13433;DHT22;6789;47.678;9.158;2023-07-29T04:39:02;18.70;99.90
13433;DHT22;6789;47.678;9.158;2023-07-29T04:43:54;18.70;99.90
13433;DHT22;6789;47.678;9.158;2023-07-29T04:48:46;18.90;99.90
13433;DHT22;6789;47.678;9.158;2023-07-29T04:53:37;18.80;99.90
13433;DHT22;6789;47.678;9.158;2023-07-29T04:58:29;18.70;99.90
13433;DHT22;6789;47.678;9.158;2023-07-29T05:03:21;18.70;99.90
13433;DHT22;6789;47.678;9.158;2023-07-29T05:08:13;18.90;99.90
13433;DHT22;6789;47.678;9.158;2023-07-29T05:13:06;18.90;99.90
13433;DHT22;6789;47.678;9.158;2023-07-29T05:17:58;18.70;99.90
13433;DHT22;6789;47.678;9.158;2023-07-29T05:22:50;18.80;99.90
13433;DHT22;6789;47.678;9.158;2023-07-29T05:27:42;18.90;99.90
13433;DHT22;6789;47.678;9.158;2023-07-29T05:32:34;19.30;99.90
13433;DHT22;6789;47.678;9.158;2023-07-29T05:37:26;20.10;99.90
13433;DHT22;6789;47.678;9.158;2023-07-29T05:42:18;20.40;99.90
13433;DHT22;6789;47.678;9.158;2023-07-29T05:47:10;21.00;99.90
13433;DHT22;6789;47.678;9.158;2023-07-29T05:52:02;21.00;99.90
13433;DHT22;6789;47.678;9.158;2023-07-29T05:56:54;21.00;99.90
13433;DHT22;6789;47.678;9.158;2023-07-29T06:01:45;21.00;99.90
13433;DHT22;6789;47.678;9.158;2023-07-29T06:06:37;20.80;99.90
13433;DHT22;6789;47.678;9.158;2023-07-29T06:11:29;20.90;99.90
13433;DHT22;6789;47.678;9.158;2023-07-29T06:16:21;21.40;99.90
13433;DHT22;6789;47.678;9.158;2023-07-29T06:21:13;22.50;99.90
13433;DHT22;6789;47.678;9.158;2023-07-29T06:26:08;23.40;99.90
13433;DHT22;6789;47.678;9.158;2023-07-29T06:31:01;24.50;99.90
13433;DHT22;6789;47.678;9.158;2023-07-29T06:35:53;23.90;99.90
13433;DHT22;6789;47.678;9.158;2023-07-29T06:40:45;23.60;99.90
13433;DHT22;6789;47.678;9.158;2023-07-29T06:45:36;23.80;99.90
13433;DHT22;6789;47.678;9.158;2023-07-29T06:50:28;23.90;99.90
13433;DHT22;6789;47.678;9.158;2023-07-29T06:55:20;23.70;99.90
13433;DHT22;6789;47.678;9.158;2023-07-29T07:00:12;24.20;99.90
13433;DHT22;6789;47.678;9.158;2023-07-29T07:05:04;24.60;99.90
13433;DHT22;6789;47.678;9.158;2023-07-29T07:09:56;24.90;99.90
13433;DHT22;6789;47.678;9.158;2023-07-29T07:14:52;25.30;99.90
13433;DHT22;6789;47.678;9.158;2023-07-29T07:19:44;25.30;99.90
13433;DHT22;6789;47.678;9.158;2023-07-29T07:24:36;25.20;99.90
13433;DHT22;6789;47.678;9.158;2023-07-29T07:29:27;25.30;99.90
13433;DHT22;6789;47.678;9.158;2023-07-29T07:34:20;25.20;99.90
13433;DHT22;6789;47.678;9.158;2023-07-29T07:39:13;25.30;99.90
13433;DHT22;6789;47.678;9.158;2023-07-29T07:44:04;25.60;99.90
13433;DHT22;6789;47.678;9.158;2023-07-29T07:48:56;25.70;99.90
13433;DHT22;6789;47.678;9.158;2023-07-29T07:53:48;26.10;99.90
13433;DHT22;6789;47.678;9.158;2023-07-29T07:58:40;26.10;99.90
13433;DHT22;6789;47.678;9.158;2023-07-29T08:03:33;26.50;99.90
13433;DHT22;6789;47.678;9.158;2023-07-29T08:08:27;26.70;99.90
13433;DHT22;6789;47.678;9.158;2023-07-29T08:13:19;26.80;99.90
13433;DHT22;6789;47.678;9.158;2023-07-29T08:18:12;27.20;99.90
13433;DHT22;6789;47.678;9.158;2023-07-29T08:23:03;27.60;99.90
13433;DHT22;6789;47.678;9.158;2023-07-29T08:27:57;27.20;99.90
13433;DHT22;6789;47.678;9.158;2023-07-29T08:32:49;27.30;99.90
13433;DHT22;6789;47.678;9.158;2023-07-29T08:37:41;26.90;99.90
13433;DHT22;6789;47.678;9.158;2023-07-29T08:42:34;27.00;99.90
13433;DHT22;6789;47.678;9.158;2023-07-29T08:47:26;27.10;99.90
13433;DHT22;6789;47.678;9.158;2023-07-29T08:52:20;26.90;99.90
13433;DHT22;6789;47.678;9.158;2023-07-29T08:57:13;27.10;99.90
13433;DHT22;6789;47.678;9.158;2023-07-29T09:02:06;27.20;99.90
13433;DHT22;6789;47.678;9.158;2023-07-29T09:06:59;26.90;99.90
13433;DHT22;6789;47.678;9.158;2023-07-29T09:11:53;26.90;99.90
13433;DHT22;6789;47.678;9.158;2023-07-29T09:16:46;26.90;99.90
13433;DHT22;6789;47.678;9.158;2023-07-29T09:21:41;26.80;99.90
13433;DHT22;6789;47.678;9.158;2023-07-29T09:26:34;26.30;99.90
13433;DHT22;6789;47.678;9.158;2023-07-29T09:31:28;26.60;99.90
13433;DHT22;6789;47.678;9.158;2023-07-29T09:36:23;27.10;99.90
13433;DHT22;6789;47.678;9.158;2023-07-29T09:41:15;27.30;99.90
13433;DHT22;6789;47.678;9.158;2023-07-29T09:46:07;27.00;99.90
13433;DHT22;6789;47.678;9.158;2023-07-29T09:50:59;26.40;99.90
13433;DHT22;6789;47.678;9.158;2023-07-29T09:55:53;26.20;99.90
13433;DHT22;6789;47.678;9.158;2023-07-29T10:00:45;26.30;99.90
13433;DHT22;6789;47.678;9.158;2023-07-29T10:05:38;26.40;99.90
13433;DHT22;6789;47.678;9.158;2023-07-29T10:10:30;26.40;99.90
13433;DHT22;6789;47.678;9.158;2023-07-29T10:15:23;26.40;99.90
13433;DHT22;6789;47.678;9.158;2023-07-29T10:20:15;26.40;99.90
13433;DHT22;6789;47.678;9.158;2023-07-29T10:25:13;26.80;99.90
13433;DHT22;6789;47.678;9.158;2023-07-29T10:30:10;26.90;99.90
13433;DHT22;6789;47.678;9.158;2023-07-29T10:35:04;26.80;99.90
13433;DHT22;6789;47.678;9.158;2023-07-29T10:39:56;26.80;99.90
13433;DHT22;6789;47.678;9.158;2023-07-29T10:44:50;27.00;99.90
13433;DHT22;6789;47.678;9.158;2023-07-29T10:49:44;27.30;99.90
13433;DHT22;6789;47.678;9.158;2023-07-29T10:54:44;27.20;99.90
13433;DHT22;6789;47.678;9.158;2023-07-29T10:59:37;27.00;99.90
13433;DHT22;6789;47.678;9.158;2023-07-29T11:04:30;27.20;99.90
13433;DHT22;6789;47.678;9.158;2023-07-29T11:14:39;27.60;99.90
13433;DHT22;6789;47.678;9.158;2023-07-29T11:19:31;27.90;99.90
13433;DHT22;6789;47.678;9.158;2023-07-29T11:24:24;28.20;99.90
13433;DHT22;6789;47.678;9.158;2023-07-29T11:29:16;28.10;99.90
13433;DHT22;6789;47.678;9.158;2023-07-29T11:34:08;28.10;99.90
13433;DHT22;6789;47.678;9.158;2023-07-29T11:39:08;27.80;99.90
13433;DHT22;6789;47.678;9.158;2023-07-29T11:44:01;27.70;99.90
13433;DHT22;6789;47.678;9.158;2023-07-29T11:48:54;28.00;99.90
13433;DHT22;6789;47.678;9.158;2023-07-29T11:53:46;27.80;99.90
13433;DHT22;6789;47.678;9.158;2023-07-29T11:58:38;27.90;99.90
13433;DHT22;6789;47.678;9.158;2023-07-29T12:03:30;28.10;99.90
13433;DHT22;6789;47.678;9.158;2023-07-29T12:08:23;28.00;99.90
13433;DHT22;6789;47.678;9.158;2023-07-29T12:13:15;28.30;99.90
13433;DHT22;6789;47.678;9.158;2023-07-29T12:18:07;28.30;99.90
13433;DHT22;6789;47.678;9.158;2023-07-29T12:22:59;27.80;99.90
13433;DHT22;6789;47.678;9.158;2023-07-29T12:28:01;27.50;99.90
13433;DHT22;6789;47.678;9.158;2023-07-29T12:32:54;27.20;99.90
13433;DHT22;6789;47.678;9.158;2023-07-29T12:37:46;26.70;99.90
13433;DHT22;6789;47.678;9.158;2023-07-29T12:42:38;26.00;99.90
13433;DHT22;6789;47.678;9.158;2023-07-29T12:47:30;25.30;99.90
13433;DHT22;6789;47.678;9.158;2023-07-29T12:52:22;25.10;99.90
13433;DHT22;6789;47.678;9.158;2023-07-29T12:57:14;24.70;99.90
13433;DHT22;6789;47.678;9.158;2023-07-29T13:02:05;24.50;99.90
13433;DHT22;6789;47.678;9.158;2023-07-29T13:06:58;24.50;99.90
13433;DHT22;6789;47.678;9.158;2023-07-29T13:11:51;24.30;99.90
13433;DHT22;6789;47.678;9.158;2023-07-29T13:16:42;24.30;99.90
13433;DHT22;6789;47.678;9.158;2023-07-29T13:21:34;24.20;99.90
13433;DHT22;6789;47.678;9.158;2023-07-29T13:26:26;23.90;99.90
13433;DHT22;6789;47.678;9.158;2023-07-29T13:31:18;23.60;99.90
13433;DHT22;6789;47.678;9.158;2023-07-29T13:36:10;23.30;99.90
13433;DHT22;6789;47.678;9.158;2023-07-29T13:41:02;23.10;99.90
13433;DHT22;6789;47.678;9.158;2023-07-29T13:45:55;22.90;99.90
13433;DHT22;6789;47.678;9.158;2023-07-29T13:50:46;22.60;99.90
13433;DHT22;6789;47.678;9.158;2023-07-29T13:55:38;22.30;99.90
13433;DHT22;6789;47.678;9.158;2023-07-29T14:00:30;22.10;99.90
13433;DHT22;6789;47.678;9.158;2023-07-29T14:05:22;22.00;99.90
13433;DHT22;6789;47.678;9.158;2023-07-29T14:10:14;22.00;99.90
13433;DHT22;6789;47.678;9.158;2023-07-29T14:15:06;22.10;99.90
13433;DHT22;6789;47.678;9.158;2023-07-29T14:19:58;22.00;99.90
13433;DHT22;6789;47.678;9.158;2023-07-29T14:24:50;22.00;99.90
13433;DHT22;6789;47.678;9.158;2023-07-29T14:29:42;21.90;99.90
13433;DHT22;6789;47.678;9.158;2023-07-29T14:34:35;21.80;99.90
13433;DHT22;6789;47.678;9.158;2023-07-29T14:39:27;21.80;99.90
13433;DHT22;6789;47.678;9.158;2023-07-29T14:44:18;22.00;99.90
13433;DHT22;6789;47.678;9.158;2023-07-29T14:49:10;22.40;99.90
13433;DHT22;6789;47.678;9.158;2023-07-29T14:54:02;22.90;99.90
13433;DHT22;6789;47.678;9.158;2023-07-29T14:58:54;23.00;99.90
13433;DHT22;6789;47.678;9.158;2023-07-29T15:03:46;22.80;99.90
13433;DHT22;6789;47.678;9.158;2023-07-29T15:08:38;22.70;99.90
13433;DHT22;6789;47.678;9.158;2023-07-29T15:13:30;22.50;99.90
13433;DHT22;6789;47.678;9.158;2023-07-29T15:18:22;22.30;99.90
13433;DHT22;6789;47.678;9.158;2023-07-29T15:23:14;22.10;99.90
13433;DHT22;6789;47.678;9.158;2023-07-29T15:28:06;22.10;99.90
13433;DHT22;6789;47.678;9.158;2023-07-29T15:32:58;22.30;99.90
13433;DHT22;6789;47.678;9.158;2023-07-29T15:37:50;22.20;99.90
13433;DHT22;6789;47.678;9.158;2023-07-29T15:42:42;22.40;99.90
13433;DHT22;6789;47.678;9.158;2023-07-29T15:47:35;22.30;99.90
13433;DHT22;6789;47.678;9.158;2023-07-29T15:52:27;22.30;99.90
13433;DHT22;6789;47.678;9.158;2023-07-29T15:57:21;22.40;99.90
13433;DHT22;6789;47.678;9.158;2023-07-29T16:02:14;22.30;99.90
13433;DHT22;6789;47.678;9.158;2023-07-29T16:07:05;22.20;99.90
13433;DHT22;6789;47.678;9.158;2023-07-29T16:11:57;22.30;99.90
13433;DHT22;6789;47.678;9.158;2023-07-29T16:16:50;22.40;99.90
13433;DHT22;6789;47.678;9.158;2023-07-29T16:21:42;22.50;99.90
13433;DHT22;6789;47.678;9.158;2023-07-29T16:26:36;22.50;99.90
13433;DHT22;6789;47.678;9.158;2023-07-29T16:31:29;22.60;99.90
13433;DHT22;6789;47.678;9.158;2023-07-29T16:36:21;22.50;99.90
13433;DHT22;6789;47.678;9.158;2023-07-29T16:41:13;22.40;99.90
13433;DHT22;6789;47.678;9.158;2023-07-29T16:46:10;22.20;99.90
13433;DHT22;6789;47.678;9.158;2023-07-29T16:51:02;22.10;99.90
13433;DHT22;6789;47.678;9.158;2023-07-29T16:55:55;22.00;99.90
13433;DHT22;6789;47.678;9.158;2023-07-29T17:00:47;22.00;99.90
13433;DHT22;6789;47.678;9.158;2023-07-29T17:05:39;22.00;99.90
13433;DHT22;6789;47.678;9.158;2023-07-29T17:10:31;22.10;99.90
13433;DHT22;6789;47.678;9.158;2023-07-29T17:15:23;21.90;99.90
13433;DHT22;6789;47.678;9.158;2023-07-29T17:20:15;22.00;99.90
13433;DHT22;6789;47.678;9.158;2023-07-29T17:25:09;21.80;99.90
13433;DHT22;6789;47.678;9.158;2023-07-29T17:30:02;21.80;99.90
13433;DHT22;6789;47.678;9.158;2023-07-29T17:34:54;21.70;99.90
13433;DHT22;6789;47.678;9.158;2023-07-29T17:39:46;21.60;99.90
13433;DHT22;6789;47.678;9.158;2023-07-29T17:44:38;21.60;99.90
13433;DHT22;6789;47.678;9.158;2023-07-29T17:49:29;21.70;99.90
13433;DHT22;6789;47.678;9.158;2023-07-29T17:54:21;21.90;99.90
13433;DHT22;6789;47.678;9.158;2023-07-29T17:59:13;21.80;99.90
13433;DHT22;6789;47.678;9.158;2023-07-29T18:04:05;21.80;99.90
13433;DHT22;6789;47.678;9.158;2023-07-29T18:08:57;21.80;99.90
13433;DHT22;6789;47.678;9.158;2023-07-29T18:13:49;21.80;99.90
13433;DHT22;6789;47.678;9.158;2023-07-29T18:18:41;21.70;99.90
13433;DHT22;6789;47.678;9.158;2023-07-29T18:23:33;21.70;99.90
13433;DHT22;6789;47.678;9.158;2023-07-29T18:28:24;21.70;99.90
13433;DHT22;6789;47.678;9.158;2023-07-29T18:33:16;21.60;99.90
13433;DHT22;6789;47.678;9.158;2023-07-29T18:38:09;21.40;99.90
13433;DHT22;6789;47.678;9.158;2023-07-29T18:43:01;21.40;99.90
13433;DHT22;6789;47.678;9.158;2023-07-29T18:47:52;21.20;99.90
13433;DHT22;6789;47.678;9.158;2023-07-29T18:52:44;21.10;99.90
13433;DHT22;6789;47.678;9.158;2023-07-29T18:57:36;21.00;99.90
13433;DHT22;6789;47.678;9.158;2023-07-29T19:02:28;21.00;99.90
13433;DHT22;6789;47.678;9.158;2023-07-29T19:07:20;20.90;99.90
13433;DHT22;6789;47.678;9.158;2023-07-29T19:12:13;20.80;99.90
13433;DHT22;6789;47.678;9.158;2023-07-29T19:17:05;20.70;99.90
13433;DHT22;6789;47.678;9.158;2023-07-29T19:21:57;20.70;99.90
13433;DHT22;6789;47.678;9.158;2023-07-29T19:26:50;20.70;99.90
13433;DHT22;6789;47.678;9.158;2023-07-29T19:31:44;20.60;99.90
13433;DHT22;6789;47.678;9.158;2023-07-29T19:36:36;20.60;99.90
13433;DHT22;6789;47.678;9.158;2023-07-29T19:41:28;20.50;99.90
13433;DHT22;6789;47.678;9.158;2023-07-29T19:46:20;20.60;99.90
13433;DHT22;6789;47.678;9.158;2023-07-29T19:51:29;20.40;99.90
13433;DHT22;6789;47.678;9.158;2023-07-29T19:56:22;20.40;99.90
13433;DHT22;6789;47.678;9.158;2023-07-29T20:01:15;20.50;99.90
13433;DHT22;6789;47.678;9.158;2023-07-29T20:06:07;20.50;99.90
13433;DHT22;6789;47.678;9.158;2023-07-29T20:10:59;20.50;99.90
13433;DHT22;6789;47.678;9.158;2023-07-29T20:15:51;20.30;99.90
13433;DHT22;6789;47.678;9.158;2023-07-29T20:20:44;20.20;99.90
13433;DHT22;6789;47.678;9.158;2023-07-29T20:25:37;20.20;99.90
13433;DHT22;6789;47.678;9.158;2023-07-29T20:30:28;20.20;99.90
13433;DHT22;6789;47.678;9.158;2023-07-29T20:35:24;20.20;99.90
13433;DHT22;6789;47.678;9.158;2023-07-29T20:40:16;20.10;99.90
13433;DHT22;6789;47.678;9.158;2023-07-29T20:45:08;20.10;99.90
13433;DHT22;6789;47.678;9.158;2023-07-29T20:50:00;20.20;99.90
13433;DHT22;6789;47.678;9.158;2023-07-29T20:54:52;20.20;99.90
13433;DHT22;6789;47.678;9.158;2023-07-29T20:59:52;20.10;99.90
13433;DHT22;6789;47.678;9.158;2023-07-29T21:04:43;20.00;99.90
13433;DHT22;6789;47.678;9.158;2023-07-29T21:09:35;20.00;99.90
13433;DHT22;6789;47.678;9.158;2023-07-29T21:14:27;19.90;99.90
13433;DHT22;6789;47.678;9.158;2023-07-29T21:19:19;19.80;99.90
13433;DHT22;6789;47.678;9.158;2023-07-29T21:24:11;19.90;99.90
13433;DHT22;6789;47.678;9.158;2023-07-29T21:29:05;20.10;99.90
13433;DHT22;6789;47.678;9.158;2023-07-29T21:34:01;20.00;99.90
13433;DHT22;6789;47.678;9.158;2023-07-29T21:38:52;20.20;99.90
13433;DHT22;6789;47.678;9.158;2023-07-29T21:43:44;20.10;99.90
13433;DHT22;6789;47.678;9.158;2023-07-29T21:48:36;20.00;99.90
13433;DHT22;6789;47.678;9.158;2023-07-29T21:53:28;20.00;99.90
13433;DHT22;6789;47.678;9.158;2023-07-29T21:58:20;19.90;99.90
13433;DHT22;6789;47.678;9.158;2023-07-29T22:03:12;19.80;99.90
13433;DHT22;6789;47.678;9.158;2023-07-29T22:08:04;19.70;99.90
13433;DHT22;6789;47.678;9.158;2023-07-29T22:12:56;19.60;99.90
13433;DHT22;6789;47.678;9.158;2023-07-29T22:17:48;19.40;99.90
13433;DHT22;6789;47.678;9.158;2023-07-29T22:22:40;19.40;99.90
13433;DHT22;6789;47.678;9.158;2023-07-29T22:27:32;19.30;99.90
13433;DHT22;6789;47.678;9.158;2023-07-29T22:32:24;19.30;99.90
13433;DHT22;6789;47.678;9.158;2023-07-29T22:37:16;19.30;99.90
13433;DHT22;6789;47.678;9.158;2023-07-29T22:42:08;19.20;99.90
13433;DHT22;6789;47.678;9.158;2023-07-29T22:47:00;19.20;99.90
13433;DHT22;6789;47.678;9.158;2023-07-29T22:51:52;19.10;99.90
13433;DHT22;6789;47.678;9.158;2023-07-29T22:56:44;19.00;99.90
13433;DHT22;6789;47.678;9.158;2023-07-29T23:01:36;19.10;99.90
13433;DHT22;6789;47.678;9.158;2023-07-29T23:06:27;18.90;99.90
13433;DHT22;6789;47.678;9.158;2023-07-29T23:11:19;18.80;99.90
13433;DHT22;6789;47.678;9.158;2023-07-29T23:16:11;18.90;99.90
13433;DHT22;6789;47.678;9.158;2023-07-29T23:21:04;19.10;99.90
13433;DHT22;6789;47.678;9.158;2023-07-29T23:25:56;19.20;99.90
13433;DHT22;6789;47.678;9.158;2023-07-29T23:30:47;19.20;99.90
13433;DHT22;6789;47.678;9.158;2023-07-29T23:35:39;19.00;99.90
13433;DHT22;6789;47.678;9.158;2023-07-29T23:40:31;19.20;99.90
13433;DHT22;6789;47.678;9.158;2023-07-29T23:45:23;19.40;99.90
13433;DHT22;6789;47.678;9.158;2023-07-29T23:50:15;19.50;99.90
13433;DHT22;6789;47.678;9.158;2023-07-29T23:55:07;19.60;99.90
13433;DHT22;6789;47.678;9.158;2023-07-29T23:59:59;19.50;99.90
